Terminal Aerodrome Forecast
Issued by NWS

Home | Current Version | Previous Version | Text Only | Print | Product List | Glossary On
Versions: 1 2 3 4 5 6 7 8 9 10 11 12 13 14
000
FTUS45 KVEF 070534
TAFBIH
TAF
KBIH 070534Z 0706/0806 34015KT P6SM SKC
     FM070900 34006KT P6SM SKC
     FM071500 05008KT P6SM SKC
     FM071700 VRB06KT P6SM SCT100
     FM071900 17011G18KT P6SM VCTS SCT100CB BKN200
     FM072300 14015G22KT P6SM VCTS BKN070CB OVC140
      TEMPO 0800/0804 VRB20G30KT 6SM -TSRA SCT050CB BKN070=

USA.gov is the U.S. government's official web portal to all federal, state and local government web resources and services.